Time;durP1;ratioP1;P1;durP2;ratioP2;P2;SDS_P1;SDS_P2;PMS_P1;PMS_P2;Temp;Humidity;BMP_temperature;BMP_pressure;BME280_temperature;BME280_humidity;BME280_pressure;Samples;Min_cycle;Max_cycle;Signal;HPM_P1;HPM_P2
2022/06/24 00:00:13;;;;;;;7.15;3.25;;;17.80;99.90;;;;;;4984009;28;20030;-60
2022/06/24 00:02:40;;;;;;;6.45;3.72;;;17.90;99.90;;;;;;4979465;28;20026;-60
2022/06/24 00:05:10;;;;;;;6.00;3.38;;;17.90;99.90;;;;;;4991578;28;20457;-60
2022/06/24 00:07:50;;;;;;;4.05;3.30;;;17.80;99.90;;;;;;4983374;28;20035;-59
2022/06/24 00:10:19;;;;;;;7.53;3.20;;;17.80;99.90;;;;;;4982137;28;20066;-60
2022/06/24 00:12:46;;;;;;;8.77;3.20;;;17.80;99.90;;;;;;4983721;28;20117;-59
2022/06/24 00:15:12;;;;;;;5.53;2.97;;;17.80;99.90;;;;;;4983610;28;20033;-60
2022/06/24 00:17:38;;;;;;;7.55;3.20;;;17.70;99.90;;;;;;4979426;28;20030;-60
2022/06/24 00:20:06;;;;;;;4.75;2.75;;;17.60;99.90;;;;;;4980046;28;20479;-60
2022/06/24 00:22:41;;;;;;;5.72;2.80;;;17.50;99.90;;;;;;4983566;28;20034;-59
2022/06/24 00:25:20;;;;;;;6.43;2.80;;;17.50;99.90;;;;;;4983233;28;20035;-60
2022/06/24 00:28:02;;;;;;;8.35;2.83;;;17.40;99.90;;;;;;4983535;28;20377;-60
2022/06/24 00:30:28;;;;;;;4.78;2.78;;;17.40;99.90;;;;;;4983457;28;20034;-60
2022/06/24 00:33:19;;;;;;;4.75;3.10;;;17.40;99.90;;;;;;4981217;28;20100;-60
2022/06/24 00:35:52;;;;;;;4.78;2.92;;;17.40;99.90;;;;;;4978988;28;20042;-59
2022/06/24 00:38:25;;;;;;;4.77;2.80;;;17.40;99.90;;;;;;4992082;28;20551;-59
2022/06/24 00:41:22;;;;;;;6.15;3.05;;;17.40;99.90;;;;;;4980145;28;20270;-60
2022/06/24 00:43:54;;;;;;;5.18;2.40;;;17.50;99.90;;;;;;4978997;28;20043;-60
2022/06/24 00:46:23;;;;;;;7.15;2.60;;;17.50;99.90;;;;;;4982920;28;20027;-60
2022/06/24 00:48:58;;;;;;;5.65;2.25;;;17.50;99.90;;;;;;4983035;28;20694;-59
2022/06/24 00:51:44;;;;;;;4.70;2.40;;;17.50;99.90;;;;;;4983322;28;20070;-59
2022/06/24 00:54:15;;;;;;;4.95;2.20;;;17.50;99.90;;;;;;4982563;28;20046;-60
2022/06/24 00:56:41;;;;;;;4.90;2.53;;;17.50;99.90;;;;;;4979026;28;20046;-60
2022/06/24 00:59:08;;;;;;;4.75;2.47;;;17.60;99.90;;;;;;4978697;28;20023;-60
2022/06/24 01:01:36;;;;;;;7.15;2.60;;;17.60;99.90;;;;;;4989808;28;20027;-60
2022/06/24 01:04:05;;;;;;;5.53;2.33;;;17.60;99.90;;;;;;4989361;28;20464;-60
2022/06/24 01:06:31;;;;;;;6.75;2.50;;;17.60;99.90;;;;;;4991025;28;20117;-59
2022/06/24 01:08:57;;;;;;;5.25;2.17;;;17.60;99.90;;;;;;4992257;28;20069;-60
2022/06/24 01:11:43;;;;;;;6.60;2.25;;;17.50;99.90;;;;;;4977977;28;20030;-60
2022/06/24 01:14:10;;;;;;;5.35;2.30;;;17.50;99.90;;;;;;4990514;28;20038;-60
2022/06/24 01:16:36;;;;;;;3.95;2.35;;;17.50;99.90;;;;;;4982053;28;20058;-60
2022/06/24 01:19:08;;;;;;;5.15;2.65;;;17.40;99.90;;;;;;4982937;28;20097;-60
2022/06/24 01:21:34;;;;;;;4.55;2.58;;;17.40;99.90;;;;;;4980676;28;20023;-59
2022/06/24 01:24:07;;;;;;;7.95;2.95;;;17.30;99.90;;;;;;4990338;28;20033;-60
2022/06/24 01:26:35;;;;;;;6.93;2.63;;;17.30;99.90;;;;;;4993130;28;20034;-60
2022/06/24 01:29:01;;;;;;;4.93;2.90;;;17.30;99.90;;;;;;4989544;28;20073;-60
2022/06/24 01:31:27;;;;;;;6.25;2.80;;;17.30;99.90;;;;;;4988749;28;20061;-60
2022/06/24 01:33:53;;;;;;;5.80;2.90;;;17.20;99.90;;;;;;4989037;28;20487;-60
2022/06/24 01:36:19;;;;;;;6.68;2.90;;;17.20;99.90;;;;;;4988396;28;20395;-60
2022/06/24 01:38:45;;;;;;;4.22;2.72;;;17.20;99.90;;;;;;4992335;28;20097;-60
2022/06/24 01:41:10;;;;;;;5.82;2.97;;;17.10;99.90;;;;;;4990171;28;20022;-60
2022/06/24 01:43:36;;;;;;;8.30;2.97;;;17.10;99.90;;;;;;4989071;28;20066;-60
2022/06/24 01:46:02;;;;;;;4.57;3.20;;;17.00;99.90;;;;;;4986204;28;20050;-61
2022/06/24 01:48:28;;;;;;;3.70;3.10;;;17.00;99.90;;;;;;4989358;28;20566;-60
2022/06/24 01:50:55;;;;;;;5.57;2.97;;;17.10;99.90;;;;;;4979358;28;20838;-60
2022/06/24 01:53:20;;;;;;;6.68;3.00;;;17.10;99.90;;;;;;4977855;28;20432;-60
2022/06/24 01:55:46;;;;;;;6.10;3.13;;;17.10;99.90;;;;;;4980246;28;20062;-60
2022/06/24 01:58:12;;;;;;;5.53;3.15;;;17.20;99.90;;;;;;4980505;28;20038;-59
2022/06/24 02:00:38;;;;;;;8.02;3.40;;;17.10;99.90;;;;;;4981433;28;20101;-60
2022/06/24 02:03:07;;;;;;;5.80;3.30;;;17.20;99.90;;;;;;4989202;28;20030;-60
2022/06/24 02:05:33;;;;;;;7.63;3.28;;;17.20;99.90;;;;;;4991997;28;20018;-60
2022/06/24 02:07:59;;;;;;;9.05;3.10;;;17.20;99.90;;;;;;4988976;28;20476;-59
2022/06/24 02:13:28;;;;;;;6.03;2.90;;;17.10;99.90;;;;;;4988131;28;20057;-60
2022/06/24 02:16:03;;;;;;;4.88;3.13;;;17.10;99.90;;;;;;4988014;28;20030;-60
2022/06/24 02:18:30;;;;;;;5.82;3.08;;;17.00;99.90;;;;;;4988095;28;20118;-60
2022/06/24 02:20:57;;;;;;;4.40;3.20;;;17.00;99.90;;;;;;4989601;28;20029;-59
2022/06/24 02:23:23;;;;;;;6.75;3.53;;;17.00;99.90;;;;;;4990670;28;20097;-59
2022/06/24 02:25:49;;;;;;;6.22;3.35;;;17.10;99.90;;;;;;4989023;28;20696;-60
2022/06/24 02:28:16;;;;;;;6.03;3.40;;;17.10;99.90;;;;;;4979508;28;20045;-59
2022/06/24 02:30:43;;;;;;;5.15;3.00;;;17.10;99.90;;;;;;4981228;28;20121;-60
2022/06/24 02:33:09;;;;;;;7.53;3.00;;;17.00;99.90;;;;;;4987519;28;20070;-60
2022/06/24 02:35:36;;;;;;;6.90;3.40;;;16.90;99.90;;;;;;4976538;28;20022;-60
2022/06/24 02:38:02;;;;;;;5.63;3.40;;;16.90;99.90;;;;;;4977690;28;20038;-59
2022/06/24 02:43:25;;;;;;;5.18;3.60;;;16.90;99.90;;;;;;4981193;28;20072;-59
2022/06/24 02:45:54;;;;;;;5.70;3.78;;;16.90;99.90;;;;;;4981317;28;20498;-60
2022/06/24 02:48:21;;;;;;;6.07;4.00;;;17.00;99.90;;;;;;4981075;28;20470;-60
2022/06/24 02:50:49;;;;;;;8.40;3.67;;;17.00;99.90;;;;;;4977599;28;20027;-60
2022/06/24 02:53:16;;;;;;;5.43;3.92;;;16.90;99.90;;;;;;4976494;28;20043;-60
2022/06/24 02:55:43;;;;;;;5.68;3.67;;;16.90;99.90;;;;;;4979806;28;20039;-59
2022/06/24 02:58:09;;;;;;;7.60;3.83;;;16.90;99.90;;;;;;4981153;28;20089;-61
2022/06/24 03:00:35;;;;;;;6.10;3.53;;;16.90;99.90;;;;;;4980664;28;20031;-60
2022/06/24 03:03:01;;;;;;;6.28;3.95;;;16.80;99.90;;;;;;4979758;28;20030;-60
2022/06/24 03:05:28;;;;;;;7.32;4.03;;;16.70;99.90;;;;;;4976269;28;20042;-60
2022/06/24 03:07:54;;;;;;;6.38;3.78;;;16.70;99.90;;;;;;4978644;28;20046;-60
2022/06/24 03:10:21;;;;;;;6.53;4.03;;;16.70;99.90;;;;;;4980875;28;20043;-60
2022/06/24 03:12:47;;;;;;;9.20;4.15;;;16.70;99.90;;;;;;4981092;28;20041;-60
2022/06/24 03:15:13;;;;;;;7.97;3.75;;;16.70;99.90;;;;;;4980934;28;20117;-60
2022/06/24 03:17:38;;;;;;;7.90;4.10;;;16.60;99.90;;;;;;4976194;28;20092;-60
2022/06/24 03:20:06;;;;;;;6.38;4.10;;;16.60;99.90;;;;;;4987196;28;20031;-60
2022/06/24 03:22:32;;;;;;;7.78;4.28;;;16.60;99.90;;;;;;4981089;28;20034;-59
2022/06/24 03:24:58;;;;;;;8.80;4.30;;;16.50;99.90;;;;;;4980635;28;20077;-60
2022/06/24 03:27:23;;;;;;;8.45;4.20;;;16.50;99.90;;;;;;4980730;28;20042;-60
2022/06/24 03:29:49;;;;;;;9.32;4.50;;;16.40;99.90;;;;;;4977743;28;20076;-60
2022/06/24 03:32:15;;;;;;;7.70;4.40;;;16.30;99.90;;;;;;4976138;28;20034;-60
2022/06/24 03:34:41;;;;;;;8.10;4.70;;;16.30;99.90;;;;;;4979838;28;20559;-61
2022/06/24 03:37:06;;;;;;;6.20;4.38;;;16.30;99.90;;;;;;4980652;28;20057;-59
2022/06/24 03:39:32;;;;;;;6.38;4.50;;;16.30;99.90;;;;;;4980270;28;20488;-59
2022/06/24 03:41:58;;;;;;;10.23;4.80;;;16.30;99.90;;;;;;4978995;28;20034;-60
2022/06/24 03:44:23;;;;;;;9.48;4.97;;;16.30;99.90;;;;;;4977819;28;20500;-61
2022/06/24 03:46:49;;;;;;;9.52;4.90;;;16.30;99.90;;;;;;4981639;28;20034;-59
2022/06/24 03:49:15;;;;;;;9.20;4.93;;;16.30;99.90;;;;;;4984256;28;20403;-59
2022/06/24 03:51:41;;;;;;;9.55;4.95;;;16.30;99.90;;;;;;4983908;28;20058;-59
2022/06/24 03:54:07;;;;;;;9.20;5.25;;;16.30;99.90;;;;;;4984337;28;20476;-59
2022/06/24 03:56:33;;;;;;;9.48;4.53;;;16.40;99.90;;;;;;4979098;28;20058;-60
2022/06/24 03:58:59;;;;;;;6.75;4.78;;;16.40;99.90;;;;;;4980774;28;20035;-60
2022/06/24 04:01:24;;;;;;;8.45;5.22;;;16.40;99.90;;;;;;4983652;28;20058;-60
2022/06/24 04:03:50;;;;;;;12.68;5.68;;;16.50;99.90;;;;;;4983982;28;20074;-59
2022/06/24 04:06:16;;;;;;;8.95;5.55;;;16.50;99.90;;;;;;4984049;28;20109;-60
2022/06/24 04:08:42;;;;;;;16.42;5.97;;;16.40;99.90;;;;;;4980233;28;20081;-60
2022/06/24 04:11:12;;;;;;;56.67;7.97;;;16.40;99.90;;;;;;4979314;28;20041;-59
2022/06/24 04:13:38;;;;;;;15.68;6.47;;;16.40;99.90;;;;;;4982931;28;20034;-59
2022/06/24 04:16:04;;;;;;;11.40;6.50;;;16.40;99.90;;;;;;4983412;28;20027;-59
2022/06/24 04:18:29;;;;;;;10.50;6.13;;;16.50;99.90;;;;;;4983633;28;20454;-59
2022/06/24 04:20:55;;;;;;;10.93;6.22;;;16.50;99.90;;;;;;4981989;28;20037;-60
2022/06/24 04:23:21;;;;;;;10.07;6.82;;;16.50;99.90;;;;;;4978904;28;20027;-58
2022/06/24 04:25:47;;;;;;;12.05;6.55;;;16.50;99.90;;;;;;4981887;28;20038;-60
2022/06/24 04:28:13;;;;;;;16.88;5.90;;;16.60;99.90;;;;;;4983245;28;20026;-60
2022/06/24 04:30:39;;;;;;;12.05;5.85;;;16.60;99.90;;;;;;4983108;28;20030;-60
2022/06/24 04:33:05;;;;;;;13.32;6.47;;;16.50;99.90;;;;;;4983109;28;20041;-60
2022/06/24 04:35:30;;;;;;;15.20;6.82;;;16.50;99.90;;;;;;4978555;28;20042;-60
2022/06/24 04:37:56;;;;;;;17.10;6.63;;;16.40;99.90;;;;;;4980468;28;20027;-60
2022/06/24 04:40:22;;;;;;;15.98;6.57;;;16.40;99.90;;;;;;4983229;28;20058;-60
2022/06/24 04:42:48;;;;;;;13.43;6.47;;;16.40;99.90;;;;;;4982978;28;20070;-60
2022/06/24 04:45:14;;;;;;;14.63;6.72;;;16.40;99.90;;;;;;4982870;28;20031;-60
2022/06/24 04:47:40;;;;;;;12.32;5.65;;;16.50;99.90;;;;;;4979484;28;20084;-60
2022/06/24 04:50:07;;;;;;;14.23;6.80;;;16.60;99.90;;;;;;4978693;28;20523;-60
2022/06/24 04:52:35;;;;;;;16.13;6.88;;;16.60;99.90;;;;;;4990059;28;20065;-60
2022/06/24 04:55:01;;;;;;;16.92;7.50;;;16.60;99.90;;;;;;4988507;28;20033;-60
2022/06/24 04:57:27;;;;;;;14.95;7.22;;;16.60;99.90;;;;;;4989421;28;20436;-60
2022/06/24 04:59:53;;;;;;;14.70;7.13;;;16.60;99.90;;;;;;4991737;28;20029;-60
2022/06/24 05:02:19;;;;;;;14.43;7.15;;;16.60;99.90;;;;;;4991703;28;20085;-60
2022/06/24 05:04:45;;;;;;;14.30;6.80;;;16.60;99.90;;;;;;4990007;28;20029;-60
2022/06/24 05:07:11;;;;;;;16.42;7.15;;;16.60;99.90;;;;;;4989288;28;20030;-60
2022/06/24 05:09:36;;;;;;;16.90;7.30;;;16.60;99.90;;;;;;4989272;28;20032;-60
2022/06/24 05:12:03;;;;;;;18.98;7.68;;;16.60;99.90;;;;;;4993866;28;20514;-60
2022/06/24 05:14:29;;;;;;;17.50;7.60;;;16.70;99.90;;;;;;4977761;28;20029;-60
2022/06/24 05:16:56;;;;;;;21.00;7.63;;;16.70;99.90;;;;;;4979905;28;20026;-60
2022/06/24 05:19:22;;;;;;;18.15;7.20;;;16.70;99.90;;;;;;4982903;28;20579;-60
2022/06/24 05:21:47;;;;;;;21.48;7.65;;;16.70;99.90;;;;;;4982017;28;20109;-60
2022/06/24 05:24:13;;;;;;;18.85;7.15;;;16.60;99.90;;;;;;4982540;28;20408;-60
2022/06/24 05:26:43;;;;;;;20.90;7.00;;;16.70;99.90;;;;;;4978494;28;20018;-60
2022/06/24 05:29:09;;;;;;;21.13;7.22;;;16.70;99.90;;;;;;4977684;28;20455;-59
2022/06/24 05:31:35;;;;;;;18.42;7.25;;;16.80;99.90;;;;;;4981907;28;20039;-60
2022/06/24 05:34:01;;;;;;;15.23;6.60;;;16.80;99.90;;;;;;4988828;28;20030;-60
2022/06/24 05:36:27;;;;;;;21.65;7.15;;;16.90;99.90;;;;;;4982038;28;20843;-60
2022/06/24 05:38:53;;;;;;;14.95;7.10;;;17.00;99.90;;;;;;4980008;28;20027;-60
2022/06/24 05:41:19;;;;;;;13.38;6.20;;;17.10;99.90;;;;;;4977931;28;20376;-60
2022/06/24 05:43:46;;;;;;;18.77;6.10;;;17.40;99.90;;;;;;4980394;28;20038;-60
2022/06/24 05:46:12;;;;;;;15.38;6.15;;;17.60;99.90;;;;;;4981905;28;20031;-60
2022/06/24 05:48:39;;;;;;;11.07;5.13;;;17.80;99.90;;;;;;4981944;28;20511;-60
2022/06/24 05:51:13;;;;;;;11.73;5.38;;;19.40;99.90;;;;;;4981682;28;20030;-60
2022/06/24 05:56:24;;;;;;;13.38;5.05;;;18.80;99.90;;;;;;4977149;28;20053;-60
2022/06/24 05:58:50;;;;;;;12.98;4.65;;;18.60;99.90;;;;;;4979759;28;20039;-60
2022/06/24 06:01:16;;;;;;;11.02;4.80;;;18.50;99.90;;;;;;4981599;28;20033;-60
2022/06/24 06:03:43;;;;;;;11.73;4.75;;;18.40;99.90;;;;;;4981532;28;20019;-60
2022/06/24 06:06:09;;;;;;;14.00;4.78;;;18.40;99.90;;;;;;4981439;28;20077;-60
2022/06/24 06:08:37;;;;;;;13.77;4.15;;;18.10;99.90;;;;;;4976290;28;20526;-61
2022/06/24 06:11:18;;;;;;;16.10;4.63;;;18.00;99.90;;;;;;4989105;28;20500;-60
2022/06/24 06:13:45;;;;;;;15.40;4.63;;;18.00;99.90;;;;;;4988205;28;20031;-60
2022/06/24 06:16:12;;;;;;;14.45;3.95;;;18.20;99.90;;;;;;4980233;28;20102;-60
2022/06/24 06:18:38;;;;;;;12.10;4.55;;;18.30;99.90;;;;;;4980907;28;20121;-60
2022/06/24 06:21:06;;;;;;;13.27;4.20;;;18.40;99.90;;;;;;4988848;28;20015;-60
2022/06/24 06:23:33;;;;;;;10.57;4.03;;;18.50;99.90;;;;;;4991783;28;20037;-60
2022/06/24 06:26:00;;;;;;;9.68;3.60;;;18.80;99.90;;;;;;4987123;28;20022;-59
2022/06/24 06:28:26;;;;;;;11.85;4.30;;;19.10;99.90;;;;;;4987806;28;20034;-60
2022/06/24 06:30:51;;;;;;;9.10;4.10;;;19.00;99.90;;;;;;4986724;28;20029;-60
2022/06/24 06:33:18;;;;;;;13.85;4.40;;;19.40;99.90;;;;;;4981234;28;20531;-60
2022/06/24 06:35:44;;;;;;;13.27;4.18;;;19.50;99.90;;;;;;4990997;28;20420;-60
2022/06/24 06:38:10;;;;;;;11.88;3.67;;;19.30;99.90;;;;;;4977102;28;20118;-60
2022/06/24 06:40:37;;;;;;;13.57;4.40;;;19.40;99.90;;;;;;4980554;28;20498;-60
2022/06/24 06:43:05;;;;;;;10.68;3.80;;;19.40;99.90;;;;;;4981044;28;20069;-60
2022/06/24 06:45:38;;;;;;;12.50;4.10;;;19.00;99.90;;;;;;4981045;28;20058;-60
2022/06/24 06:48:04;;;;;;;8.57;4.07;;;19.30;99.90;;;;;;4980514;28;20021;-60
2022/06/24 06:50:31;;;;;;;8.93;4.25;;;19.80;99.90;;;;;;4976461;28;20376;-60
2022/06/24 06:52:57;;;;;;;9.00;3.65;;;20.00;99.90;;;;;;4978074;28;20373;-60
2022/06/24 06:55:23;;;;;;;11.68;3.70;;;20.80;99.90;;;;;;4980877;28;20061;-60
2022/06/24 06:57:48;;;;;;;11.70;3.97;;;20.20;99.90;;;;;;4980997;28;20026;-62
2022/06/24 07:00:15;;;;;;;10.80;3.55;;;20.20;99.90;;;;;;4980822;28;20034;-61
2022/06/24 07:02:41;;;;;;;8.25;3.67;;;20.40;99.90;;;;;;4977176;28;20465;-61
2022/06/24 07:05:07;;;;;;;7.32;3.47;;;21.00;99.90;;;;;;4976915;28;20115;-60
2022/06/24 07:07:33;;;;;;;9.80;3.10;;;23.70;99.90;;;;;;4981247;28;20031;-60
2022/06/24 07:09:59;;;;;;;7.90;3.13;;;25.50;99.90;;;;;;4980661;28;20030;-60
2022/06/24 07:12:26;;;;;;;6.95;2.92;;;25.00;99.90;;;;;;4975870;28;20432;-60
2022/06/24 07:14:52;;;;;;;8.75;3.03;;;25.80;99.90;;;;;;4990276;28;20380;-61
2022/06/24 07:17:19;;;;;;;10.07;3.00;;;26.30;99.90;;;;;;4989595;28;20030;-60
2022/06/24 07:19:46;;;;;;;6.97;2.50;;;27.40;99.90;;;;;;4990995;28;20022;-60
2022/06/24 07:22:12;;;;;;;8.77;2.83;;;24.70;99.90;;;;;;4991038;28;20026;-60
2022/06/24 07:24:38;;;;;;;7.35;2.72;;;24.20;99.90;;;;;;4990840;28;20030;-61
2022/06/24 07:27:09;;;;;;;8.85;3.08;;;24.30;99.90;;;;;;4992303;28;20034;-61
2022/06/24 07:29:36;;;;;;;9.25;2.90;;;23.60;99.90;;;;;;4995301;28;20566;-61
2022/06/24 07:32:06;;;;;;;9.48;3.13;;;23.10;99.90;;;;;;4991646;28;20510;-60
2022/06/24 07:34:33;;;;;;;13.23;3.03;;;22.00;99.90;;;;;;4984813;28;20022;-60
2022/06/24 07:37:03;;;;;;;8.15;2.90;;;21.10;99.90;;;;;;4984167;28;20061;-60
2022/06/24 07:39:29;;;;;;;6.75;2.95;;;21.60;99.90;;;;;;4983975;28;20439;-60
2022/06/24 07:41:55;;;;;;;9.05;2.90;;;22.10;99.90;;;;;;4982450;28;20023;-60
2022/06/24 07:44:21;;;;;;;5.80;2.67;;;23.20;99.90;;;;;;4979806;28;20472;-61
2022/06/24 07:46:48;;;;;;;10.77;3.00;;;21.90;99.90;;;;;;4980677;28;20444;-60
2022/06/24 07:49:14;;;;;;;10.07;3.38;;;22.10;99.90;;;;;;4984220;28;20035;-60
2022/06/24 07:51:39;;;;;;;8.95;3.00;;;21.90;99.90;;;;;;4984053;28;20173;-61
2022/06/24 07:54:07;;;;;;;11.85;3.65;;;21.50;99.90;;;;;;4983507;28;20038;-60
2022/06/24 07:59:21;;;;;;;10.00;3.20;;;21.80;99.90;;;;;;4993508;28;20072;-60
2022/06/24 08:01:47;;;;;;;6.68;2.90;;;21.50;99.90;;;;;;4991030;28;20054;-60
2022/06/24 08:04:14;;;;;;;9.50;3.00;;;22.10;99.90;;;;;;4990318;28;20026;-61
2022/06/24 08:06:45;;;;;;;8.20;3.45;;;22.20;99.90;;;;;;4990593;28;20057;-60
2022/06/24 08:09:11;;;;;;;7.72;2.80;;;22.00;99.90;;;;;;4990107;28;20555;-60
2022/06/24 08:11:36;;;;;;;7.10;3.10;;;22.50;99.90;;;;;;4992881;28;20161;-61
2022/06/24 08:14:03;;;;;;;8.70;3.08;;;26.80;99.90;;;;;;4991329;28;20022;-60
2022/06/24 08:16:28;;;;;;;7.47;2.38;;;29.20;99.90;;;;;;4990210;28;20049;-60
2022/06/24 08:18:55;;;;;;;11.75;2.65;;;29.40;99.90;;;;;;4990053;28;20026;-60
2022/06/24 08:21:21;;;;;;;6.78;2.60;;;27.20;99.90;;;;;;4990181;28;20027;-60
2022/06/24 08:23:47;;;;;;;11.52;3.00;;;25.10;99.90;;;;;;4993139;28;20026;-60
2022/06/24 08:26:13;;;;;;;7.50;3.17;;;24.60;99.90;;;;;;4992185;28;20026;-60
2022/06/24 08:28:39;;;;;;;14.98;3.67;;;24.20;99.90;;;;;;4983031;28;20037;-60
2022/06/24 08:31:05;;;;;;;19.02;3.95;;;23.00;99.90;;;;;;4982319;28;20027;-60
2022/06/24 08:33:30;;;;;;;5.07;2.70;;;21.40;99.90;;;;;;4983426;28;20034;-60
2022/06/24 08:35:56;;;;;;;6.50;2.78;;;20.50;99.90;;;;;;4981174;28;20030;-60
2022/06/24 08:38:22;;;;;;;7.20;3.13;;;20.40;99.90;;;;;;4978825;28;20037;-60
2022/06/24 08:40:49;;;;;;;5.72;2.85;;;20.40;99.90;;;;;;4992892;28;20077;-60
2022/06/24 08:43:16;;;;;;;6.20;2.97;;;20.20;99.90;;;;;;4989843;28;20037;-60
2022/06/24 08:45:42;;;;;;;4.80;2.58;;;19.90;99.90;;;;;;4989665;28;20041;-60
2022/06/24 08:48:09;;;;;;;5.40;2.45;;;20.10;99.90;;;;;;4990035;28;20033;-60
2022/06/24 08:50:35;;;;;;;6.22;2.45;;;20.30;99.90;;;;;;4994166;28;20093;-60
2022/06/24 08:53:06;;;;;;;6.32;2.50;;;20.30;99.90;;;;;;4989912;28;20042;-60
2022/06/24 08:55:37;;;;;;;4.93;2.55;;;19.90;99.90;;;;;;4989413;28;20077;-60
2022/06/24 08:58:13;;;;;;;5.20;2.80;;;20.20;99.90;;;;;;4989507;28;20030;-60
2022/06/24 09:00:40;;;;;;;6.60;2.80;;;20.40;99.90;;;;;;4989438;28;20092;-60
2022/06/24 09:03:07;;;;;;;4.90;2.40;;;23.20;99.90;;;;;;4990086;28;20035;-60
2022/06/24 09:05:33;;;;;;;6.82;2.70;;;26.20;99.90;;;;;;4993204;28;20396;-60
2022/06/24 09:08:06;;;;;;;9.80;2.63;;;24.70;99.90;;;;;;4979958;28;20027;-61
2022/06/24 09:10:33;;;;;;;6.18;2.50;;;26.90;99.90;;;;;;4983070;28;20062;-60
2022/06/24 09:12:59;;;;;;;6.28;2.50;;;26.90;99.90;;;;;;4982502;28;20054;-60
2022/06/24 09:15:25;;;;;;;5.97;2.90;;;25.30;99.90;;;;;;4982633;28;20480;-60
2022/06/24 09:17:52;;;;;;;6.43;2.70;;;25.60;99.90;;;;;;4980003;28;20038;-61
2022/06/24 09:20:21;;;;;;;5.25;2.60;;;25.60;99.90;;;;;;4977650;28;20027;-60
2022/06/24 09:22:47;;;;;;;7.63;3.03;;;25.90;99.90;;;;;;4981028;28;20027;-60
2022/06/24 09:25:13;;;;;;;9.13;2.80;;;27.20;99.90;;;;;;4982566;28;20119;-61
2022/06/24 09:27:44;;;;;;;6.50;2.97;;;27.10;99.90;;;;;;4982883;28;20027;-60
2022/06/24 09:30:11;;;;;;;5.57;2.72;;;26.80;99.90;;;;;;4982125;28;20038;-60
2022/06/24 09:32:55;;;;;;;6.82;3.13;;;26.70;99.90;;;;;;4977839;28;20120;-60
2022/06/24 09:35:22;;;;;;;7.90;3.15;;;27.00;99.90;;;;;;4990914;28;20538;-60
2022/06/24 09:37:50;;;;;;;6.97;2.90;;;27.10;99.90;;;;;;4978648;28;20404;-60
2022/06/24 09:40:21;;;;;;;8.73;3.20;;;25.20;99.90;;;;;;4982405;28;20041;-60
2022/06/24 09:43:09;;;;;;;6.72;3.00;;;24.40;99.90;;;;;;4982037;28;20495;-60
2022/06/24 09:45:46;;;;;;;8.13;3.05;;;24.00;99.90;;;;;;4982046;28;20114;-60
2022/06/24 09:48:33;;;;;;;6.75;2.88;;;24.20;99.90;;;;;;4981922;28;20143;-60
2022/06/24 09:51:06;;;;;;;6.28;2.70;;;25.30;99.90;;;;;;4979565;28;20133;-60
2022/06/24 09:53:35;;;;;;;7.07;3.22;;;24.80;99.90;;;;;;4977275;28;20041;-61
2022/06/24 09:56:02;;;;;;;4.72;2.58;;;24.10;99.90;;;;;;4978469;28;20117;-60
2022/06/24 09:58:28;;;;;;;6.78;2.83;;;23.90;99.90;;;;;;4982146;28;20074;-60
2022/06/24 10:00:54;;;;;;;8.38;2.70;;;24.30;99.90;;;;;;4981555;28;20015;-60
2022/06/24 10:03:20;;;;;;;5.50;2.40;;;24.50;99.90;;;;;;4981844;28;20123;-60
2022/06/24 10:05:48;;;;;;;4.50;2.63;;;25.40;99.90;;;;;;4978100;28;20031;-60
2022/06/24 10:08:19;;;;;;;4.22;2.40;;;26.80;99.90;;;;;;4977167;28;20030;-60
2022/06/24 10:10:54;;;;;;;5.25;2.63;;;27.40;99.90;;;;;;4988327;28;20054;-60
2022/06/24 10:13:30;;;;;;;4.97;2.45;;;26.70;99.90;;;;;;4988313;28;20121;-60
2022/06/24 10:15:57;;;;;;;4.65;2.55;;;25.40;99.90;;;;;;4987865;28;20029;-61
2022/06/24 10:18:35;;;;;;;6.10;2.55;;;25.00;99.90;;;;;;4987707;28;20031;-60
2022/06/24 10:21:04;;;;;;;5.10;3.00;;;24.70;99.90;;;;;;4989425;28;20085;-60
2022/06/24 10:23:40;;;;;;;8.07;2.97;;;25.20;99.90;;;;;;4991646;28;20030;-60
2022/06/24 10:26:10;;;;;;;6.43;2.90;;;25.90;99.90;;;;;;4988912;28;20041;-60
2022/06/24 10:29:04;;;;;;;6.30;2.92;;;25.70;99.90;;;;;;4980809;28;20031;-60
2022/06/24 10:31:45;;;;;;;5.68;3.15;;;24.80;99.90;;;;;;4980996;28;20043;-60
2022/06/24 10:34:22;;;;;;;5.22;3.13;;;24.80;99.90;;;;;;4980966;28;20508;-60
2022/06/24 10:36:49;;;;;;;7.55;3.13;;;25.00;99.90;;;;;;4981368;28;20164;-60
2022/06/24 10:39:18;;;;;;;5.55;3.08;;;25.30;99.90;;;;;;4981217;28;20037;-60
2022/06/24 10:41:44;;;;;;;8.45;3.20;;;25.60;99.90;;;;;;4977535;28;20034;-60
2022/06/24 10:44:23;;;;;;;5.78;3.47;;;24.80;99.90;;;;;;4977211;28;20026;-60
2022/06/24 10:47:07;;;;;;;5.55;3.10;;;24.00;99.90;;;;;;4977750;28;20023;-60
2022/06/24 10:49:51;;;;;;;5.82;3.10;;;23.80;99.90;;;;;;4980892;28;20027;-60
2022/06/24 10:52:37;;;;;;;6.55;3.03;;;23.90;99.90;;;;;;4980936;28;20042;-60
2022/06/24 10:55:18;;;;;;;7.53;3.38;;;25.20;99.90;;;;;;4980528;28;20114;-59
2022/06/24 10:57:54;;;;;;;7.65;4.13;;;24.80;99.90;;;;;;4980973;28;20484;-60
2022/06/24 11:00:36;;;;;;;5.50;3.55;;;24.90;99.90;;;;;;4981335;28;20042;-60
2022/06/24 11:03:04;;;;;;;8.23;3.65;;;24.90;99.90;;;;;;4979597;28;20045;-60
2022/06/24 11:05:39;;;;;;;6.43;3.42;;;24.10;99.90;;;;;;4976272;28;20030;-60
2022/06/24 11:08:19;;;;;;;8.88;3.45;;;24.00;99.90;;;;;;4988761;28;20468;-60
2022/06/24 11:10:47;;;;;;;6.97;3.42;;;24.30;99.90;;;;;;4987949;28;20041;-60
2022/06/24 11:13:14;;;;;;;4.80;3.17;;;24.40;99.90;;;;;;4987131;28;20042;-60
2022/06/24 11:15:58;;;;;;;6.75;3.80;;;24.30;99.90;;;;;;4987393;28;20033;-60
2022/06/24 11:18:32;;;;;;;7.55;3.50;;;24.60;99.90;;;;;;4987308;28;20507;-60
2022/06/24 11:21:03;;;;;;;8.73;3.55;;;24.40;99.90;;;;;;4989109;28;20030;-60
2022/06/24 11:23:31;;;;;;;8.20;3.67;;;23.90;99.90;;;;;;4973883;28;20410;-60
2022/06/24 11:26:02;;;;;;;6.60;3.30;;;24.40;99.90;;;;;;4988375;28;20022;-60
2022/06/24 11:28:36;;;;;;;8.07;3.65;;;23.90;99.90;;;;;;4987116;28;20391;-59
2022/06/24 11:31:25;;;;;;;8.75;3.78;;;24.20;99.90;;;;;;4986811;28;20487;-60
2022/06/24 11:33:52;;;;;;;7.15;3.50;;;24.90;99.90;;;;;;4987154;28;20045;-60
2022/06/24 11:36:21;;;;;;;7.07;3.67;;;24.70;99.90;;;;;;4987144;28;20031;-60
2022/06/24 11:39:04;;;;;;;8.35;3.70;;;24.80;99.90;;;;;;4990835;28;20120;-60
2022/06/24 11:41:33;;;;;;;7.22;3.55;;;25.30;99.90;;;;;;4990950;28;20518;-60
2022/06/24 11:43:59;;;;;;;7.68;3.72;;;24.60;99.90;;;;;;4977722;28;20031;-60
2022/06/24 11:46:25;;;;;;;9.05;3.80;;;24.10;99.90;;;;;;4980234;28;20165;-60
2022/06/24 11:49:10;;;;;;;10.18;3.88;;;24.20;99.90;;;;;;4980985;28;20057;-60
2022/06/24 11:51:35;;;;;;;9.63;3.50;;;24.10;99.90;;;;;;4980288;28;20031;-60
2022/06/24 11:54:03;;;;;;;9.25;3.58;;;24.50;99.90;;;;;;4979325;28;20353;-60
2022/06/24 11:56:31;;;;;;;10.50;3.60;;;24.40;99.90;;;;;;4974393;28;20392;-60
2022/06/24 11:58:58;;;;;;;9.77;4.18;;;24.00;99.90;;;;;;4978242;28;20038;-60
2022/06/24 12:01:26;;;;;;;9.90;3.90;;;24.00;99.90;;;;;;4979929;28;20415;-60
2022/06/24 12:03:53;;;;;;;10.00;4.20;;;24.50;99.90;;;;;;4980328;28;20023;-59
2022/06/24 12:06:20;;;;;;;7.75;3.75;;;25.20;99.90;;;;;;4982709;28;20491;-60
2022/06/24 12:08:47;;;;;;;9.27;4.57;;;25.70;99.90;;;;;;4980782;28;20444;-60
2022/06/24 12:11:19;;;;;;;9.82;4.30;;;24.60;99.90;;;;;;4979270;28;20050;-60
2022/06/24 12:13:58;;;;;;;8.57;4.13;;;24.10;99.90;;;;;;4990311;28;20030;-60
2022/06/24 12:16:25;;;;;;;6.97;3.92;;;23.40;99.90;;;;;;4990214;28;20030;-60
2022/06/24 12:18:51;;;;;;;8.43;4.38;;;23.60;99.90;;;;;;4990207;28;20444;-60
2022/06/24 12:21:25;;;;;;;5.97;3.95;;;24.80;99.90;;;;;;4994353;28;20118;-60
2022/06/24 12:23:51;;;;;;;8.88;4.35;;;25.10;99.90;;;;;;4980791;28;20024;-60
2022/06/24 12:26:23;;;;;;;6.60;4.10;;;24.60;99.90;;;;;;4978858;28;20027;-60
2022/06/24 12:29:03;;;;;;;8.20;4.55;;;24.10;99.90;;;;;;4979924;28;20022;-60
2022/06/24 12:31:30;;;;;;;9.48;3.88;;;24.00;99.90;;;;;;4983218;28;20035;-60
2022/06/24 12:33:57;;;;;;;6.22;3.72;;;24.20;99.90;;;;;;4983425;28;20126;-60
2022/06/24 12:36:40;;;;;;;11.18;4.05;;;23.90;99.90;;;;;;4983338;28;20034;-60
2022/06/24 12:39:07;;;;;;;8.07;4.35;;;24.10;99.90;;;;;;4982686;28;20110;-60
2022/06/24 12:41:43;;;;;;;6.68;3.83;;;24.00;99.90;;;;;;4978903;28;20034;-60
2022/06/24 12:44:09;;;;;;;6.05;4.03;;;24.10;99.90;;;;;;4990435;28;20065;-60
2022/06/24 12:46:34;;;;;;;7.80;4.28;;;24.00;99.90;;;;;;4990336;28;20033;-60
2022/06/24 12:51:55;;;;;;;7.90;4.15;;;23.70;99.90;;;;;;4990128;28;20037;-60
2022/06/24 12:54:20;;;;;;;8.73;4.10;;;23.30;99.90;;;;;;4989497;28;20043;-60
2022/06/24 12:56:46;;;;;;;9.02;4.60;;;23.50;99.90;;;;;;4992905;28;20046;-60
2022/06/24 12:59:12;;;;;;;8.07;4.38;;;23.80;99.90;;;;;;4990563;28;20039;-60
2022/06/24 13:01:45;;;;;;;7.53;4.18;;;23.80;99.90;;;;;;4983037;28;20082;-60
2022/06/24 13:04:13;;;;;;;6.88;3.88;;;24.50;99.90;;;;;;4982781;28;20030;-60